Time;durP1;ratioP1;P1;durP2;ratioP2;P2;SDS_P1;SDS_P2;PMS_P1;PMS_P2;Temp;Humidity;BMP_temperature;BMP_pressure;BME280_temperature;BME280_humidity;BME280_pressure;Samples;Min_cycle;Max_cycle;Signal;HPM_P1;HPM_P2
2023/06/06 00:00:50;;;;;;;2.67;2.00;;;;;;;;;;6235348;28;20509;-82
2023/06/06 00:03:52;;;;;;;2.25;2.00;;;;;;;;;;6238550;28;20049;-80
2023/06/06 00:06:56;;;;;;;3.47;2.60;;;;;;;;;;6235307;28;20088;-81
2023/06/06 00:09:58;;;;;;;3.97;2.30;;;;;;;;;;6231783;28;20448;-82
2023/06/06 00:13:01;;;;;;;6.45;2.38;;;;;;;;;;6207887;28;20051;-82
2023/06/06 00:16:04;;;;;;;3.95;2.33;;;;;;;;;;6236812;28;20082;-79
2023/06/06 00:19:06;;;;;;;5.47;2.50;;;;;;;;;;6233372;28;20128;-81
2023/06/06 00:22:09;;;;;;;2.83;2.20;;;;;;;;;;6242982;28;20057;-82
2023/06/06 00:25:11;;;;;;;3.83;2.63;;;;;;;;;;6250460;28;20437;-80
2023/06/06 00:28:13;;;;;;;4.95;2.30;;;;;;;;;;6224401;28;20412;-79
2023/06/06 00:31:15;;;;;;;3.50;2.35;;;;;;;;;;6239359;28;20049;-81
2023/06/06 00:34:16;;;;;;;2.83;2.38;;;;;;;;;;6237789;28;20049;-81
2023/06/06 00:37:18;;;;;;;5.40;2.90;;;;;;;;;;6227242;28;20050;-82
2023/06/06 00:40:21;;;;;;;2.50;2.30;;;;;;;;;;6234974;28;20069;-79
2023/06/06 00:43:23;;;;;;;4.22;2.50;;;;;;;;;;6217663;28;20041;-81
2023/06/06 00:46:25;;;;;;;3.30;2.50;;;;;;;;;;6233046;28;20056;-81
2023/06/06 00:49:27;;;;;;;4.60;2.38;;;;;;;;;;6212317;28;20061;-82
2023/06/06 00:52:30;;;;;;;3.30;2.20;;;;;;;;;;6231077;28;20061;-78
2023/06/06 00:55:34;;;;;;;;;;;;;;;;;;6229875;28;22195;-82
2023/06/06 00:58:36;;;;;;;3.25;2.60;;;;;;;;;;6225117;28;19921;-82
2023/06/06 01:01:39;;;;;;;4.68;2.42;;;;;;;;;;6260913;28;20044;-81
2023/06/06 01:04:41;;;;;;;4.20;2.60;;;;;;;;;;6231550;28;20053;-80
2023/06/06 01:07:47;;;;;;;5.10;2.63;;;;;;;;;;6236457;28;20050;-81
2023/06/06 01:10:51;;;;;;;4.38;2.85;;;;;;;;;;6236834;28;20057;-81
2023/06/06 01:14:19;;;;;;;4.30;2.80;;;;;;;;;;6232014;28;20088;-82
2023/06/06 01:17:25;;;;;;;3.28;2.65;;;;;;;;;;6228000;28;20060;-81
2023/06/06 01:20:28;;;;;;;5.82;2.75;;;;;;;;;;6240994;28;20041;-81
2023/06/06 01:23:34;;;;;;;4.10;2.65;;;;;;;;;;6230829;28;20037;-83
2023/06/06 01:26:36;;;;;;;3.25;2.70;;;;;;;;;;6227942;28;20128;-81
2023/06/06 01:29:38;;;;;;;4.28;2.80;;;;;;;;;;6243310;28;20045;-80
2023/06/06 01:33:03;;;;;;;3.80;2.45;;;;;;;;;;6275972;28;20045;-80
2023/06/06 01:36:27;;;;;;;3.28;2.50;;;;;;;;;;6252457;28;20042;-79
2023/06/06 01:39:31;;;;;;;4.55;2.83;;;;;;;;;;6239687;28;20073;-81
2023/06/06 01:42:38;;;;;;;3.80;3.03;;;;;;;;;;6236112;28;20041;-80
2023/06/06 01:45:41;;;;;;;4.38;2.53;;;;;;;;;;6211435;28;20049;-81
2023/06/06 01:48:43;;;;;;;6.22;3.03;;;;;;;;;;6238817;28;20447;-80
2023/06/06 01:51:46;;;;;;;5.57;3.83;;;;;;;;;;6237033;28;20638;-83
2023/06/06 01:54:48;;;;;;;3.87;3.10;;;;;;;;;;6246049;28;20113;-81
2023/06/06 01:57:50;;;;;;;4.35;2.88;;;;;;;;;;6222416;28;20050;-81
2023/06/06 02:00:52;;;;;;;3.58;2.90;;;;;;;;;;6213938;28;20042;-80
2023/06/06 02:03:54;;;;;;;4.75;2.63;;;;;;;;;;6239423;28;20049;-79
2023/06/06 02:06:56;;;;;;;3.22;2.80;;;;;;;;;;6225974;28;20132;-81
2023/06/06 02:09:58;;;;;;;3.75;2.67;;;;;;;;;;6239882;28;20172;-83
2023/06/06 02:12:59;;;;;;;4.47;2.80;;;;;;;;;;6240599;28;20055;-80
2023/06/06 02:16:02;;;;;;;4.72;3.25;;;;;;;;;;6239613;28;20120;-79
2023/06/06 02:19:04;;;;;;;5.25;3.00;;;;;;;;;;6242689;28;20088;-81
2023/06/06 02:22:06;;;;;;;5.40;3.40;;;;;;;;;;6255408;28;20101;-80
2023/06/06 02:25:10;;;;;;;4.03;2.90;;;;;;;;;;6228963;28;20107;-80
2023/06/06 02:28:14;;;;;;;4.68;2.95;;;;;;;;;;6233009;28;20061;-82
2023/06/06 02:31:16;;;;;;;3.63;3.13;;;;;;;;;;6221049;28;20050;-82
2023/06/06 02:34:18;;;;;;;3.40;3.08;;;;;;;;;;6219675;28;20046;-82
2023/06/06 02:37:21;;;;;;;4.07;2.95;;;;;;;;;;6241223;28;20073;-81
2023/06/06 02:40:23;;;;;;;4.65;3.25;;;;;;;;;;6238288;28;20117;-81
2023/06/06 02:43:24;;;;;;;5.75;3.20;;;;;;;;;;6232136;28;20052;-81
2023/06/06 02:46:27;;;;;;;3.88;3.08;;;;;;;;;;6237100;28;20064;-82
2023/06/06 02:49:29;;;;;;;4.20;3.20;;;;;;;;;;6223976;28;20149;-83
2023/06/06 02:52:35;;;;;;;4.78;3.15;;;;;;;;;;6242035;28;20049;-80
2023/06/06 02:55:37;;;;;;;3.95;3.00;;;;;;;;;;6240334;28;20065;-80
2023/06/06 02:58:39;;;;;;;3.80;3.25;;;;;;;;;;6236489;28;20128;-82
2023/06/06 03:01:40;;;;;;;4.60;3.17;;;;;;;;;;6235125;28;20057;-83
2023/06/06 03:04:43;;;;;;;5.88;3.20;;;;;;;;;;6242970;28;20042;-80
2023/06/06 03:07:46;;;;;;;3.45;3.15;;;;;;;;;;6256012;28;20077;-81
2023/06/06 03:10:50;;;;;;;4.35;2.90;;;;;;;;;;6236611;28;20053;-81
2023/06/06 03:13:52;;;;;;;4.75;2.80;;;;;;;;;;6229252;28;20046;-80
2023/06/06 03:16:55;;;;;;;4.05;3.13;;;;;;;;;;6232676;28;20535;-82
2023/06/06 03:19:59;;;;;;;3.92;3.05;;;;;;;;;;6234572;28;20166;-81
2023/06/06 03:23:02;;;;;;;;;;;;;;;;;;6220019;28;20042;-82
2023/06/06 03:26:04;;;;;;;4.45;2.85;;;;;;;;;;6259930;28;20229;-81
2023/06/06 03:29:07;;;;;;;3.72;3.05;;;;;;;;;;6215749;28;20046;-82
2023/06/06 03:32:09;;;;;;;5.15;3.05;;;;;;;;;;6233492;28;20116;-81
2023/06/06 03:35:14;;;;;;;4.82;3.13;;;;;;;;;;6222600;28;20049;-81
2023/06/06 03:38:17;;;;;;;3.70;2.95;;;;;;;;;;6233148;28;20056;-81
2023/06/06 03:41:18;;;;;;;6.20;3.25;;;;;;;;;;6232417;28;20064;-80
2023/06/06 03:44:21;;;;;;;4.75;3.40;;;;;;;;;;6237337;28;20041;-82
2023/06/06 03:47:24;;;;;;;5.82;3.33;;;;;;;;;;6236238;28;20045;-81
2023/06/06 03:50:26;;;;;;;5.68;3.47;;;;;;;;;;6235071;28;20050;-81
2023/06/06 03:53:27;;;;;;;4.85;3.40;;;;;;;;;;6241715;28;20041;-81
2023/06/06 03:56:29;;;;;;;3.95;3.20;;;;;;;;;;6234788;28;20049;-81
2023/06/06 03:59:31;;;;;;;3.60;3.25;;;;;;;;;;6222771;28;20046;-81
2023/06/06 04:02:34;;;;;;;4.60;3.30;;;;;;;;;;6216096;28;20042;-81
2023/06/06 04:05:36;;;;;;;4.88;3.30;;;;;;;;;;6233226;28;20034;-80
2023/06/06 04:08:39;;;;;;;5.90;3.60;;;;;;;;;;6230689;28;20088;-81
2023/06/06 04:11:41;;;;;;;5.90;3.55;;;;;;;;;;6226992;28;20118;-83
2023/06/06 04:14:43;;;;;;;4.72;3.20;;;;;;;;;;6230188;28;20052;-82
2023/06/06 04:17:45;;;;;;;3.40;3.10;;;;;;;;;;6228787;28;20046;-82
2023/06/06 04:20:47;;;;;;;5.53;3.33;;;;;;;;;;6266821;28;20049;-82
2023/06/06 04:23:50;;;;;;;6.22;4.18;;;;;;;;;;6219054;28;20246;-82
2023/06/06 04:26:53;;;;;;;5.20;3.97;;;;;;;;;;6237248;28;20037;-81
2023/06/06 04:29:57;;;;;;;5.67;3.47;;;;;;;;;;6220328;28;20050;-82
2023/06/06 04:33:00;;;;;;;3.90;3.25;;;;;;;;;;6222218;28;20053;-80
2023/06/06 04:36:05;;;;;;;5.32;3.40;;;;;;;;;;6232864;28;20602;-82
2023/06/06 04:39:08;;;;;;;5.30;3.95;;;;;;;;;;6212015;28;20044;-82
2023/06/06 04:42:12;;;;;;;4.63;3.78;;;;;;;;;;6217398;28;20037;-82
2023/06/06 04:45:15;;;;;;;4.95;3.50;;;;;;;;;;6229784;28;20400;-83
2023/06/06 04:48:18;;;;;;;5.10;3.70;;;;;;;;;;6229644;28;20113;-81
2023/06/06 04:51:22;;;;;;;6.07;3.88;;;;;;;;;;6234981;28;20057;-82
2023/06/06 04:54:24;;;;;;;6.47;4.00;;;;;;;;;;6217003;28;20041;-80
2023/06/06 04:57:26;;;;;;;6.20;4.03;;;;;;;;;;6227604;28;20077;-80
2023/06/06 05:00:28;;;;;;;6.43;4.40;;;;;;;;;;6233303;28;20042;-79
2023/06/06 05:03:30;;;;;;;6.35;3.60;;;;;;;;;;6211804;28;20349;-83
2023/06/06 05:06:33;;;;;;;5.65;4.20;;;;;;;;;;6242756;28;20055;-80
2023/06/06 05:09:35;;;;;;;10.05;5.32;;;;;;;;;;6238293;28;20077;-80
2023/06/06 05:12:37;;;;;;;12.15;4.63;;;;;;;;;;6232091;28;20049;-80
2023/06/06 05:15:39;;;;;;;9.38;4.57;;;;;;;;;;6248667;28;20049;-83
2023/06/06 05:18:40;;;;;;;7.63;4.60;;;;;;;;;;6222209;28;20050;-81
2023/06/06 05:21:42;;;;;;;9.80;5.00;;;;;;;;;;6218893;28;20041;-82
2023/06/06 05:24:44;;;;;;;11.38;5.03;;;;;;;;;;6242886;28;20514;-81
2023/06/06 05:27:46;;;;;;;14.25;4.88;;;;;;;;;;6239820;28;20100;-81
2023/06/06 05:30:48;;;;;;;14.05;4.97;;;;;;;;;;6225294;28;20050;-79
2023/06/06 05:33:51;;;;;;;14.50;4.88;;;;;;;;;;6235033;28;20054;-80
2023/06/06 05:36:52;;;;;;;;;;;;;;;;;;6241662;28;20052;-80
2023/06/06 05:39:54;;;;;;;11.38;4.45;;;;;;;;;;6241053;28;20336;-83
2023/06/06 05:42:56;;;;;;;9.85;4.53;;;;;;;;;;6227772;28;20049;-80
2023/06/06 05:46:00;;;;;;;6.93;4.25;;;;;;;;;;6231556;28;20045;-80
2023/06/06 05:49:02;;;;;;;10.30;4.65;;;;;;;;;;6236625;28;20042;-82
2023/06/06 05:52:04;;;;;;;9.75;5.25;;;;;;;;;;6230865;28;20069;-81
2023/06/06 05:55:07;;;;;;;10.30;4.43;;;;;;;;;;6237325;28;20052;-79
2023/06/06 05:58:09;;;;;;;11.05;4.25;;;;;;;;;;6231150;28;20050;-81
2023/06/06 06:01:12;;;;;;;7.43;4.67;;;;;;;;;;6232993;28;20053;-79
2023/06/06 06:04:16;;;;;;;10.07;4.15;;;;;;;;;;6234750;28;20049;-80
2023/06/06 06:07:18;;;;;;;9.68;4.40;;;;;;;;;;6217284;28;20060;-82
2023/06/06 06:10:21;;;;;;;10.30;4.20;;;;;;;;;;6263518;28;20136;-80
2023/06/06 06:13:22;;;;;;;7.47;3.85;;;;;;;;;;6213888;28;20042;-81
2023/06/06 06:16:24;;;;;;;7.68;3.83;;;;;;;;;;6240503;28;20041;-81
2023/06/06 06:19:26;;;;;;;7.20;3.80;;;;;;;;;;6238219;28;20069;-82
2023/06/06 06:22:28;;;;;;;7.63;3.72;;;;;;;;;;6243740;28;20056;-83
2023/06/06 06:25:29;;;;;;;12.32;4.28;;;;;;;;;;6231407;28;20053;-82
2023/06/06 06:28:31;;;;;;;8.02;3.35;;;;;;;;;;6234490;28;20049;-81
2023/06/06 06:31:33;;;;;;;7.65;4.07;;;;;;;;;;6228981;28;20108;-79
2023/06/06 06:34:35;;;;;;;7.15;3.83;;;;;;;;;;6240055;28;20042;-81
2023/06/06 06:37:37;;;;;;;8.48;3.90;;;;;;;;;;6236550;28;20046;-81
2023/06/06 06:40:39;;;;;;;9.82;4.13;;;;;;;;;;6239960;28;20049;-80
2023/06/06 06:43:42;;;;;;;12.30;4.57;;;;;;;;;;6234029;28;20113;-81
2023/06/06 06:46:49;;;;;;;11.30;3.88;;;;;;;;;;6231769;28;20101;-83
2023/06/06 06:49:52;;;;;;;10.40;4.00;;;;;;;;;;6236023;28;20049;-82
2023/06/06 06:52:56;;;;;;;10.57;3.97;;;;;;;;;;6236149;28;20049;-82
2023/06/06 06:55:57;;;;;;;8.27;3.75;;;;;;;;;;6233481;28;20057;-82
2023/06/06 06:59:01;;;;;;;15.05;4.00;;;;;;;;;;6234034;28;20056;-83
2023/06/06 07:02:05;;;;;;;13.80;4.07;;;;;;;;;;6227368;28;20041;-82
2023/06/06 07:05:07;;;;;;;9.90;4.05;;;;;;;;;;6215988;28;20434;-83
2023/06/06 07:08:09;;;;;;;15.07;4.20;;;;;;;;;;6237138;28;20061;-82
2023/06/06 07:11:10;;;;;;;9.88;3.97;;;;;;;;;;6235714;28;20049;-81
2023/06/06 07:14:12;;;;;;;8.10;3.30;;;;;;;;;;6220296;28;20044;-81
2023/06/06 07:17:17;;;;;;;10.40;3.30;;;;;;;;;;6251378;28;20072;-79
2023/06/06 07:20:21;;;;;;;8.00;3.08;;;;;;;;;;6236931;28;20062;-79
2023/06/06 07:23:23;;;;;;;5.15;2.70;;;;;;;;;;6228666;28;20451;-80
2023/06/06 07:26:26;;;;;;;8.05;3.40;;;;;;;;;;6222467;28;20050;-80
2023/06/06 07:29:29;;;;;;;;;;;;;;;;;;6231921;28;20038;-80
2023/06/06 07:32:33;;;;;;;5.68;2.75;;;;;;;;;;6234887;28;19921;-80
2023/06/06 07:35:36;;;;;;;3.90;2.63;;;;;;;;;;6235118;28;20056;-81
2023/06/06 07:38:37;;;;;;;6.10;2.45;;;;;;;;;;6233347;28;20052;-82
2023/06/06 07:41:39;;;;;;;3.90;2.78;;;;;;;;;;6229145;28;20048;-83
2023/06/06 07:44:41;;;;;;;5.03;2.63;;;;;;;;;;6229904;28;20038;-82
2023/06/06 07:47:43;;;;;;;3.78;2.70;;;;;;;;;;6230033;28;20041;-82
2023/06/06 07:50:45;;;;;;;5.60;3.03;;;;;;;;;;6230209;28;20046;-83
2023/06/06 07:53:47;;;;;;;5.73;2.77;;;;;;;;;;6227099;28;20049;-82
2023/06/06 07:56:49;;;;;;;4.25;2.78;;;;;;;;;;6222170;28;20042;-79
2023/06/06 07:59:51;;;;;;;5.15;2.78;;;;;;;;;;6225872;28;20050;-81
2023/06/06 08:02:53;;;;;;;3.83;2.80;;;;;;;;;;6231544;28;20057;-82
2023/06/06 08:05:55;;;;;;;4.33;2.90;;;;;;;;;;6239233;28;20449;-82
2023/06/06 08:08:57;;;;;;;4.05;2.75;;;;;;;;;;6234937;28;20459;-82
2023/06/06 08:11:59;;;;;;;5.03;3.20;;;;;;;;;;6236878;28;20092;-83
2023/06/06 08:15:03;;;;;;;4.20;3.40;;;;;;;;;;6234336;28;20038;-83
2023/06/06 08:18:04;;;;;;;4.15;2.83;;;;;;;;;;6264426;28;20046;-84
2023/06/06 08:21:06;;;;;;;5.93;3.25;;;;;;;;;;6225878;28;20076;-87
2023/06/06 08:24:08;;;;;;;5.33;2.80;;;;;;;;;;6254605;28;20041;-82
2023/06/06 08:27:10;;;;;;;4.82;2.88;;;;;;;;;;6252196;28;20049;-82
2023/06/06 08:30:12;;;;;;;4.22;3.08;;;;;;;;;;6238079;28;20472;-81
2023/06/06 08:33:14;;;;;;;7.18;3.28;;;;;;;;;;6212775;28;20046;-82
2023/06/06 08:36:16;;;;;;;4.35;2.83;;;;;;;;;;6229808;28;20057;-81
2023/06/06 08:39:20;;;;;;;7.83;3.30;;;;;;;;;;6230994;28;20069;-80
2023/06/06 08:42:24;;;;;;;4.70;2.97;;;;;;;;;;6227777;28;20042;-81
2023/06/06 08:45:26;;;;;;;5.25;2.90;;;;;;;;;;6232992;28;20054;-82
2023/06/06 08:48:28;;;;;;;7.07;3.10;;;;;;;;;;6232391;28;20050;-80
2023/06/06 08:51:31;;;;;;;4.50;2.95;;;;;;;;;;6226144;28;20456;-81
2023/06/06 08:54:33;;;;;;;6.95;2.90;;;;;;;;;;6223390;28;20045;-82
2023/06/06 08:57:41;;;;;;;;;;;;;;;;;;6260162;28;20049;-82
2023/06/06 09:00:43;;;;;;;4.85;3.20;;;;;;;;;;6239665;28;20006;-82
2023/06/06 09:03:45;;;;;;;4.10;3.00;;;;;;;;;;6243283;28;20037;-82
2023/06/06 09:06:50;;;;;;;4.00;3.50;;;;;;;;;;6225246;28;20097;-82
2023/06/06 09:09:52;;;;;;;7.50;3.35;;;;;;;;;;6227297;28;20050;-82
2023/06/06 09:12:54;;;;;;;5.50;3.20;;;;;;;;;;6231630;28;20053;-81
2023/06/06 09:15:56;;;;;;;5.55;3.53;;;;;;;;;;6231739;28;20452;-83
2023/06/06 09:18:58;;;;;;;3.58;3.00;;;;;;;;;;6219112;28;20053;-82
2023/06/06 09:22:07;;;;;;;5.15;3.22;;;;;;;;;;6235959;28;20051;-82
2023/06/06 09:25:21;;;;;;;3.42;3.10;;;;;;;;;;6235302;28;20097;-81
2023/06/06 09:28:39;;;;;;;5.72;3.25;;;;;;;;;;6240294;28;20042;-81
2023/06/06 09:31:42;;;;;;;4.82;3.20;;;;;;;;;;6244509;28;20046;-80
2023/06/06 09:34:44;;;;;;;;;;;;;;;;;;6219537;28;20050;-80
2023/06/06 09:37:46;;;;;;;4.22;3.00;;;;;;;;;;6227066;28;19921;-79
2023/06/06 09:40:52;;;;;;;;;;;;;;;;;;6225472;28;20500;-80
2023/06/06 09:43:53;;;;;;;2.85;2.65;;;;;;;;;;6252915;28;19937;-81
2023/06/06 09:47:02;;;;;;;4.65;3.17;;;;;;;;;;6222871;28;20133;-80
2023/06/06 09:50:05;;;;;;;4.63;3.45;;;;;;;;;;6222985;28;20052;-81
2023/06/06 09:53:13;;;;;;;4.65;3.50;;;;;;;;;;6219103;28;20115;-80
2023/06/06 09:56:15;;;;;;;3.90;2.97;;;;;;;;;;6223049;28;20041;-80
2023/06/06 09:59:20;;;;;;;5.25;3.00;;;;;;;;;;6223687;28;20048;-80
2023/06/06 10:02:25;;;;;;;5.38;3.38;;;;;;;;;;6225444;28;20057;-79
2023/06/06 10:05:28;;;;;;;5.00;3.05;;;;;;;;;;6231433;28;20061;-78
2023/06/06 10:08:31;;;;;;;4.85;3.10;;;;;;;;;;6235056;28;20045;-79
2023/06/06 10:11:34;;;;;;;4.90;3.30;;;;;;;;;;6230017;28;20049;-78
2023/06/06 10:14:38;;;;;;;4.88;2.80;;;;;;;;;;6224217;28;20132;-79
2023/06/06 10:17:42;;;;;;;5.25;3.00;;;;;;;;;;6232212;28;20573;-78
2023/06/06 10:20:44;;;;;;;5.00;3.60;;;;;;;;;;6260532;28;20083;-77
2023/06/06 10:23:47;;;;;;;3.47;3.08;;;;;;;;;;6232308;28;20056;-81
2023/06/06 10:27:28;;;;;;;6.20;3.15;;;;;;;;;;6221905;28;20069;-78
2023/06/06 10:30:42;;;;;;;5.28;2.88;;;;;;;;;;6237254;28;20094;-80
2023/06/06 10:33:54;;;;;;;5.53;3.35;;;;;;;;;;6225560;28;20052;-79
2023/06/06 10:36:57;;;;;;;5.03;3.03;;;;;;;;;;6218035;28;20787;-79
2023/06/06 10:40:09;;;;;;;3.85;3.20;;;;;;;;;;6220928;28;20748;-79
2023/06/06 10:43:11;;;;;;;4.72;3.13;;;;;;;;;;6223287;28;20061;-79
2023/06/06 10:46:34;;;;;;;4.07;3.17;;;;;;;;;;6220372;28;20148;-82
2023/06/06 10:49:36;;;;;;;4.20;2.95;;;;;;;;;;6224352;28;20042;-80
2023/06/06 10:52:59;;;;;;;6.20;3.20;;;;;;;;;;6228477;28;20072;-80
2023/06/06 10:56:06;;;;;;;5.22;3.35;;;;;;;;;;6253074;28;20038;-80
2023/06/06 10:59:11;;;;;;;4.10;3.53;;;;;;;;;;6232463;28;20045;-80
2023/06/06 11:02:32;;;;;;;6.30;3.33;;;;;;;;;;6229302;28;20057;-82
2023/06/06 11:06:00;;;;;;;4.47;3.42;;;;;;;;;;6202046;28;20137;-78
2023/06/06 11:09:16;;;;;;;6.65;3.35;;;;;;;;;;6219880;28;20508;-79
2023/06/06 11:12:18;;;;;;;4.75;3.33;;;;;;;;;;6222099;28;20045;-78
2023/06/06 11:15:54;;;;;;;3.42;3.10;;;;;;;;;;6206936;28;20045;-77
2023/06/06 11:19:03;;;;;;;4.40;3.08;;;;;;;;;;6223559;28;20046;-78
2023/06/06 11:22:05;;;;;;;3.85;3.17;;;;;;;;;;6212961;28;20049;-77
2023/06/06 11:25:07;;;;;;;3.80;3.20;;;;;;;;;;6217546;28;20455;-75
2023/06/06 11:28:11;;;;;;;4.47;3.20;;;;;;;;;;6216829;28;20046;-76
2023/06/06 11:31:16;;;;;;;3.92;3.15;;;;;;;;;;6214440;28;20045;-78
2023/06/06 11:34:18;;;;;;;4.82;3.17;;;;;;;;;;6218569;28;20064;-77
2023/06/06 11:37:20;;;;;;;6.30;3.50;;;;;;;;;;6217253;28;20504;-78
2023/06/06 11:40:25;;;;;;;5.75;3.03;;;;;;;;;;6218360;28;20041;-77
2023/06/06 11:43:27;;;;;;;3.50;2.75;;;;;;;;;;6218802;28;20050;-77
2023/06/06 11:46:45;;;;;;;5.22;3.05;;;;;;;;;;6238314;28;20125;-77
2023/06/06 11:49:48;;;;;;;4.18;3.20;;;;;;;;;;6240185;28;20054;-78
2023/06/06 11:52:50;;;;;;;3.67;3.33;;;;;;;;;;6221159;28;20049;-79
2023/06/06 11:55:52;;;;;;;6.65;3.17;;;;;;;;;;6223998;28;20515;-78
2023/06/06 11:58:56;;;;;;;6.88;3.05;;;;;;;;;;6216791;28;20045;-76
2023/06/06 12:01:58;;;;;;;3.40;3.08;;;;;;;;;;6214607;28;20053;-77
2023/06/06 12:05:03;;;;;;;4.20;2.92;;;;;;;;;;6220217;28;20538;-76
2023/06/06 12:08:05;;;;;;;4.00;3.20;;;;;;;;;;6253281;28;20060;-77
2023/06/06 12:11:22;;;;;;;;;;;;;;;;;;6213805;28;20833;-76
2023/06/06 12:14:25;;;;;;;7.03;3.20;;;;;;;;;;6215592;28;20007;-75
2023/06/06 12:17:28;;;;;;;3.67;2.90;;;;;;;;;;6225195;28;20064;-78
2023/06/06 12:20:30;;;;;;;3.03;2.58;;;;;;;;;;6215987;28;20045;-78
2023/06/06 12:23:32;;;;;;;3.83;2.88;;;;;;;;;;6219016;28;20211;-78
2023/06/06 12:26:53;;;;;;;5.55;3.13;;;;;;;;;;6220012;28;20099;-77
2023/06/06 12:29:55;;;;;;;4.00;3.10;;;;;;;;;;6226534;28;20586;-76
2023/06/06 12:32:58;;;;;;;;;;;;;;;;;;6217316;28;20052;-81
2023/06/06 12:36:17;;;;;;;4.00;3.17;;;;;;;;;;6202741;28;19926;-84
2023/06/06 12:39:19;;;;;;;4.63;2.97;;;;;;;;;;6221617;28;20049;-80
2023/06/06 12:42:20;;;;;;;3.75;3.10;;;;;;;;;;6224369;28;20047;-79
2023/06/06 12:45:24;;;;;;;4.57;3.08;;;;;;;;;;6216401;28;20084;-80
2023/06/06 12:48:25;;;;;;;4.47;3.30;;;;;;;;;;6213044;28;20042;-80
2023/06/06 12:51:27;;;;;;;5.07;3.33;;;;;;;;;;6222495;28;20068;-79
2023/06/06 12:54:29;;;;;;;3.53;3.22;;;;;;;;;;6216329;28;20526;-80
2023/06/06 12:57:31;;;;;;;4.75;3.25;;;;;;;;;;6216424;28;20049;-77
2023/06/06 13:00:32;;;;;;;4.22;3.67;;;;;;;;;;6220660;28;20037;-78
2023/06/06 13:03:34;;;;;;;5.20;3.75;;;;;;;;;;6223711;28;20400;-79
2023/06/06 13:06:36;;;;;;;4.00;3.60;;;;;;;;;;6220319;28;20084;-77
2023/06/06 13:09:38;;;;;;;;;;;;;;;;;;6227225;28;20046;-80
2023/06/06 13:12:40;;;;;;;5.33;3.37;;;;;;;;;;6222445;28;19928;-79
2023/06/06 13:15:42;;;;;;;4.50;3.42;;;;;;;;;;6241139;28;20049;-81
2023/06/06 13:18:44;;;;;;;4.20;3.42;;;;;;;;;;6225510;28;20088;-75
2023/06/06 13:21:46;;;;;;;4.18;3.38;;;;;;;;;;6216247;28;20137;-79
2023/06/06 13:24:48;;;;;;;4.07;3.40;;;;;;;;;;6224262;28;20503;-79
2023/06/06 13:27:49;;;;;;;4.40;3.20;;;;;;;;;;6216382;28;20053;-77
2023/06/06 13:30:51;;;;;;;6.70;3.50;;;;;;;;;;6217896;28;20060;-77
2023/06/06 13:33:53;;;;;;;4.15;2.80;;;;;;;;;;6220037;28;20578;-76
2023/06/06 13:36:55;;;;;;;4.80;3.15;;;;;;;;;;6223473;28;20049;-75
2023/06/06 13:39:57;;;;;;;3.65;3.17;;;;;;;;;;6241026;28;20490;-72
2023/06/06 13:42:59;;;;;;;5.20;3.53;;;;;;;;;;6220918;28;20151;-76
2023/06/06 13:46:01;;;;;;;5.93;3.30;;;;;;;;;;6223104;28;20971;-75
2023/06/06 13:49:02;;;;;;;4.17;3.73;;;;;;;;;;6220130;28;20041;-76
2023/06/06 13:52:05;;;;;;;4.60;3.60;;;;;;;;;;6226323;28;20049;-79
2023/06/06 13:55:08;;;;;;;4.30;3.25;;;;;;;;;;6223822;28;20477;-79
2023/06/06 13:58:10;;;;;;;5.25;3.10;;;;;;;;;;6224928;28;20074;-79
2023/06/06 14:01:12;;;;;;;4.80;3.20;;;;;;;;;;6237175;28;20054;-77
2023/06/06 14:04:14;;;;;;;13.73;9.52;;;;;;;;;;6240693;28;20049;-78
2023/06/06 14:07:16;;;;;;;5.78;3.60;;;;;;;;;;6206039;28;20061;-79
2023/06/06 14:10:19;;;;;;;5.28;3.22;;;;;;;;;;6230907;28;20042;-79
2023/06/06 14:13:21;;;;;;;6.25;3.60;;;;;;;;;;6222789;28;20104;-78
2023/06/06 14:16:22;;;;;;;4.80;3.27;;;;;;;;;;6212646;28;20052;-78
2023/06/06 14:19:34;;;;;;;4.97;3.63;;;;;;;;;;6228909;28;20561;-77
2023/06/06 14:22:37;;;;;;;6.10;3.45;;;;;;;;;;6220761;28;20054;-77
2023/06/06 14:25:42;;;;;;;3.90;2.90;;;;;;;;;;6212489;28;20049;-79
2023/06/06 14:28:44;;;;;;;5.10;3.65;;;;;;;;;;6224018;28;20042;-77
2023/06/06 14:31:45;;;;;;;3.83;3.08;;;;;;;;;;6227654;28;20198;-77
2023/06/06 14:34:47;;;;;;;5.63;3.47;;;;;;;;;;6222367;28;20081;-78
2023/06/06 14:37:49;;;;;;;5.38;3.60;;;;;;;;;;6227097;28;20049;-77
2023/06/06 14:40:51;;;;;;;7.32;3.70;;;;;;;;;;6224001;28;20049;-79
2023/06/06 14:43:55;;;;;;;3.60;3.30;;;;;;;;;;6220892;28;20054;-77
2023/06/06 14:47:00;;;;;;;3.50;3.20;;;;;;;;;;6191680;28;20170;-79
2023/06/06 14:50:02;;;;;;;3.70;3.05;;;;;;;;;;6218459;28;20062;-77
2023/06/06 14:53:04;;;;;;;3.80;3.25;;;;;;;;;;6223751;28;20049;-80
2023/06/06 14:56:06;;;;;;;4.20;2.75;;;;;;;;;;6226458;28;20519;-78
2023/06/06 14:59:09;;;;;;;3.75;2.78;;;;;;;;;;6234523;28;20053;-79
2023/06/06 15:02:12;;;;;;;3.83;2.83;;;;;;;;;;6216916;28;20046;-79
2023/06/06 15:05:14;;;;;;;8.52;3.58;;;;;;;;;;6231977;28;20046;-81
2023/06/06 15:08:16;;;;;;;7.72;3.47;;;;;;;;;;6225575;28;20080;-82
2023/06/06 15:11:18;;;;;;;5.57;3.40;;;;;;;;;;6220070;28;20057;-79
2023/06/06 15:14:20;;;;;;;4.00;2.95;;;;;;;;;;6225227;28;20042;-80
2023/06/06 15:17:21;;;;;;;4.13;3.03;;;;;;;;;;6222071;28;20045;-80
2023/06/06 15:20:23;;;;;;;5.25;3.10;;;;;;;;;;6219592;28;20045;-79
2023/06/06 15:23:25;;;;;;;4.93;3.05;;;;;;;;;;6229221;28;20045;-80
2023/06/06 15:26:27;;;;;;;4.78;3.03;;;;;;;;;;6224174;28;20053;-82
2023/06/06 15:29:29;;;;;;;4.40;3.45;;;;;;;;;;6229112;28;20050;-81
2023/06/06 15:32:32;;;;;;;4.53;3.20;;;;;;;;;;6225091;28;20511;-83
2023/06/06 15:35:35;;;;;;;6.35;3.42;;;;;;;;;;6222390;28;20053;-83
2023/06/06 15:38:37;;;;;;;3.93;3.47;;;;;;;;;;6197782;28;20046;-81
2023/06/06 15:41:39;;;;;;;8.13;3.20;;;;;;;;;;6217525;28;20034;-82
2023/06/06 15:44:42;;;;;;;4.30;3.10;;;;;;;;;;6223235;28;20184;-82
2023/06/06 15:47:44;;;;;;;4.43;3.13;;;;;;;;;;6224234;28;20046;-82
2023/06/06 15:50:48;;;;;;;6.10;3.30;;;;;;;;;;6221882;28;20415;-82
2023/06/06 15:53:51;;;;;;;4.28;3.03;;;;;;;;;;6224645;28;20060;-82
2023/06/06 15:56:57;;;;;;;5.15;3.30;;;;;;;;;;6235057;28;20128;-83
2023/06/06 16:00:00;;;;;;;3.63;3.00;;;;;;;;;;6237598;28;20045;-82
2023/06/06 16:03:07;;;;;;;4.20;2.50;;;;;;;;;;6236425;28;20433;-82
2023/06/06 16:06:08;;;;;;;3.67;2.90;;;;;;;;;;6230301;28;20048;-81
2023/06/06 16:09:10;;;;;;;3.50;3.03;;;;;;;;;;6226687;28;20049;-82
2023/06/06 16:12:12;;;;;;;3.57;2.93;;;;;;;;;;6252958;28;20045;-80
2023/06/06 16:15:14;;;;;;;3.72;2.80;;;;;;;;;;6233727;28;20045;-81
2023/06/06 16:18:16;;;;;;;3.63;2.70;;;;;;;;;;6228702;28;20073;-79
2023/06/06 16:21:17;;;;;;;4.57;3.10;;;;;;;;;;6223803;28;20041;-78
2023/06/06 16:24:19;;;;;;;3.97;3.10;;;;;;;;;;6203744;28;20045;-79
2023/06/06 16:27:21;;;;;;;4.35;3.10;;;;;;;;;;6218103;28;20041;-79
2023/06/06 16:30:23;;;;;;;4.95;2.90;;;;;;;;;;6203652;28;20049;-79
2023/06/06 16:33:24;;;;;;;3.67;3.22;;;;;;;;;;6215718;28;20064;-81
2023/06/06 16:36:26;;;;;;;3.72;2.80;;;;;;;;;;6217244;28;20046;-81
2023/06/06 16:39:28;;;;;;;3.53;2.78;;;;;;;;;;6220596;28;20057;-79
2023/06/06 16:42:29;;;;;;;5.82;3.08;;;;;;;;;;6216516;28;20045;-79
2023/06/06 16:45:31;;;;;;;3.60;2.88;;;;;;;;;;6216802;28;20096;-80
2023/06/06 16:48:33;;;;;;;7.13;3.08;;;;;;;;;;6223790;28;20052;-80
2023/06/06 16:51:35;;;;;;;7.60;3.17;;;;;;;;;;6224136;28;20861;-80
2023/06/06 16:54:37;;;;;;;3.95;3.03;;;;;;;;;;6229164;28;20427;-81
2023/06/06 16:57:39;;;;;;;4.22;3.20;;;;;;;;;;6218754;28;20046;-80
2023/06/06 17:00:41;;;;;;;3.05;2.75;;;;;;;;;;6212067;28;20041;-80
2023/06/06 17:03:45;;;;;;;4.93;3.38;;;;;;;;;;6221428;28;20060;-81
2023/06/06 17:06:47;;;;;;;6.32;3.60;;;;;;;;;;6220202;28;20093;-81
2023/06/06 17:09:49;;;;;;;5.35;3.10;;;;;;;;;;6220948;28;20061;-80
2023/06/06 17:12:50;;;;;;;5.43;3.92;;;;;;;;;;6218407;28;20518;-77
2023/06/06 17:15:52;;;;;;;5.95;3.13;;;;;;;;;;6235484;28;20129;-77
2023/06/06 17:18:54;;;;;;;3.97;2.90;;;;;;;;;;6238369;28;20053;-77
2023/06/06 17:21:56;;;;;;;4.75;2.90;;;;;;;;;;6216099;28;20052;-77
2023/06/06 17:24:59;;;;;;;4.47;2.92;;;;;;;;;;6216470;28;20091;-77
2023/06/06 17:28:01;;;;;;;4.82;3.00;;;;;;;;;;6226351;28;20507;-77
2023/06/06 17:31:02;;;;;;;3.97;2.80;;;;;;;;;;6230888;28;20504;-77
2023/06/06 17:34:05;;;;;;;5.90;3.27;;;;;;;;;;6220257;28;20053;-79
2023/06/06 17:37:09;;;;;;;4.85;3.20;;;;;;;;;;6231359;28;20059;-78
2023/06/06 17:40:11;;;;;;;5.80;3.30;;;;;;;;;;6227694;28;20042;-80
2023/06/06 17:43:13;;;;;;;3.58;3.00;;;;;;;;;;6233398;28;20050;-79
2023/06/06 17:46:15;;;;;;;2.90;2.67;;;;;;;;;;6231220;28;20045;-80
2023/06/06 17:49:17;;;;;;;4.30;3.30;;;;;;;;;;6230460;28;20435;-80
2023/06/06 17:52:20;;;;;;;4.68;2.83;;;;;;;;;;6204344;28;20054;-80
2023/06/06 17:55:22;;;;;;;6.28;3.13;;;;;;;;;;6230074;28;20049;-80
2023/06/06 17:58:24;;;;;;;5.83;3.10;;;;;;;;;;6226723;28;20046;-80
2023/06/06 18:01:41;;;;;;;3.47;2.97;;;;;;;;;;6227128;28;20042;-81
2023/06/06 18:04:51;;;;;;;3.45;2.90;;;;;;;;;;6227482;28;20046;-80
2023/06/06 18:07:53;;;;;;;3.60;3.00;;;;;;;;;;6231643;28;20045;-80
2023/06/06 18:10:55;;;;;;;3.25;2.95;;;;;;;;;;6229452;28;20072;-80
2023/06/06 18:13:57;;;;;;;4.18;3.35;;;;;;;;;;6229258;28;20057;-81
2023/06/06 18:16:59;;;;;;;4.45;3.30;;;;;;;;;;6227344;28;20046;-80
2023/06/06 18:20:02;;;;;;;3.70;3.25;;;;;;;;;;6212738;28;20045;-80
2023/06/06 18:23:04;;;;;;;4.10;3.28;;;;;;;;;;6231404;28;20105;-80